sensor_id;sensor_type;location;lat;lon;timestamp;pressure;altitude;pressure_sealevel;temperature;humidity
55990;BME280;41875;55.806;38.082;2022-09-13T00:01:27;99441.44;;;11.84;50.25
55990;BME280;41875;55.806;38.082;2022-09-13T00:03:55;99436.63;;;11.79;50.20
55990;BME280;41875;55.806;38.082;2022-09-13T00:06:24;99449.25;;;11.85;50.36
55990;BME280;41875;55.806;38.082;2022-09-13T00:08:53;99439.13;;;11.89;50.21
55990;BME280;41875;55.806;38.082;2022-09-13T00:11:23;99447.22;;;11.96;49.90
55990;BME280;41875;55.806;38.082;2022-09-13T00:13:52;99447.75;;;11.66;50.64
55990;BME280;41875;55.806;38.082;2022-09-13T00:16:24;99445.78;;;11.68;50.46
55990;BME280;41875;55.806;38.082;2022-09-13T00:18:54;99436.69;;;11.46;51.02
55990;BME280;41875;55.806;38.082;2022-09-13T00:21:23;99439.16;;;11.23;51.60
55990;BME280;41875;55.806;38.082;2022-09-13T00:23:52;99436.84;;;11.36;51.35
55990;BME280;41875;55.806;38.082;2022-09-13T00:26:23;99437.03;;;11.26;51.62
55990;BME280;41875;55.806;38.082;2022-09-13T00:28:54;99445.81;;;11.43;51.11
55990;BME280;41875;55.806;38.082;2022-09-13T00:31:28;99429.03;;;11.43;50.98
55990;BME280;41875;55.806;38.082;2022-09-13T00:33:58;99441.31;;;11.44;50.95
55990;BME280;41875;55.806;38.082;2022-09-13T00:36:26;99431.38;;;11.29;51.36
55990;BME280;41875;55.806;38.082;2022-09-13T00:38:55;99433.38;;;11.36;51.06
55990;BME280;41875;55.806;38.082;2022-09-13T00:41:23;99438.66;;;11.27;51.44
55990;BME280;41875;55.806;38.082;2022-09-13T00:43:54;99437.53;;;11.30;51.15
55990;BME280;41875;55.806;38.082;2022-09-13T00:46:29;99433.03;;;11.22;51.38
55990;BME280;41875;55.806;38.082;2022-09-13T00:49:03;99419.59;;;11.24;51.19
55990;BME280;41875;55.806;38.082;2022-09-13T00:51:36;99426.22;;;11.20;51.60
55990;BME280;41875;55.806;38.082;2022-09-13T00:54:05;99428.06;;;11.03;51.93
55990;BME280;41875;55.806;38.082;2022-09-13T00:56:37;99438.31;;;10.97;52.03
55990;BME280;41875;55.806;38.082;2022-09-13T00:59:08;99430.53;;;10.88;52.30
55990;BME280;41875;55.806;38.082;2022-09-13T01:01:47;99425.75;;;11.16;51.56
55990;BME280;41875;55.806;38.082;2022-09-13T01:04:18;99432.03;;;11.15;51.62
55990;BME280;41875;55.806;38.082;2022-09-13T01:06:53;99425.06;;;11.06;51.58
55990;BME280;41875;55.806;38.082;2022-09-13T01:09:24;99424.22;;;11.05;51.64
55990;BME280;41875;55.806;38.082;2022-09-13T01:11:58;99422.94;;;11.01;51.63
55990;BME280;41875;55.806;38.082;2022-09-13T01:14:31;99421.59;;;11.05;51.72
55990;BME280;41875;55.806;38.082;2022-09-13T01:17:07;99431.16;;;10.90;52.16
55990;BME280;41875;55.806;38.082;2022-09-13T01:19:38;99431.97;;;10.82;52.40
55990;BME280;41875;55.806;38.082;2022-09-13T01:25:26;99429.47;;;10.56;53.22
55990;BME280;41875;55.806;38.082;2022-09-13T01:28:17;99438.25;;;10.73;52.79
55990;BME280;41875;55.806;38.082;2022-09-13T01:30:58;99427.03;;;10.87;52.46
55990;BME280;41875;55.806;38.082;2022-09-13T01:33:42;99420.34;;;10.66;52.50
55990;BME280;41875;55.806;38.082;2022-09-13T01:36:36;99425.50;;;10.68;52.85
55990;BME280;41875;55.806;38.082;2022-09-13T01:39:13;99420.03;;;10.61;52.91
55990;BME280;41875;55.806;38.082;2022-09-13T01:41:53;99411.06;;;10.54;53.13
55990;BME280;41875;55.806;38.082;2022-09-13T01:44:37;99424.16;;;10.64;52.85
55990;BME280;41875;55.806;38.082;2022-09-13T01:47:19;99412.94;;;10.78;52.53
55990;BME280;41875;55.806;38.082;2022-09-13T01:49:58;99415.53;;;10.54;53.26
55990;BME280;41875;55.806;38.082;2022-09-13T01:52:37;99428.28;;;10.58;53.07
55990;BME280;41875;55.806;38.082;2022-09-13T01:55:19;99423.34;;;10.63;53.03
55990;BME280;41875;55.806;38.082;2022-09-13T01:57:53;99417.69;;;10.50;53.34
55990;BME280;41875;55.806;38.082;2022-09-13T02:00:24;99420.19;;;10.60;52.93
55990;BME280;41875;55.806;38.082;2022-09-13T02:03:00;99420.97;;;10.52;53.31
55990;BME280;41875;55.806;38.082;2022-09-13T02:05:40;99418.09;;;10.37;53.70
55990;BME280;41875;55.806;38.082;2022-09-13T02:08:24;99400.19;;;10.22;53.61
55990;BME280;41875;55.806;38.082;2022-09-13T02:11:04;99404.94;;;10.62;53.04
55990;BME280;41875;55.806;38.082;2022-09-13T02:13:38;99413.84;;;10.44;53.34
55990;BME280;41875;55.806;38.082;2022-09-13T02:16:12;99407.94;;;10.59;53.00
55990;BME280;41875;55.806;38.082;2022-09-13T02:18:48;99415.69;;;10.52;53.12
55990;BME280;41875;55.806;38.082;2022-09-13T02:21:22;99409.81;;;10.32;54.03
55990;BME280;41875;55.806;38.082;2022-09-13T02:23:55;99408.72;;;10.08;54.50
55990;BME280;41875;55.806;38.082;2022-09-13T02:26:28;99410.38;;;10.44;53.53
55990;BME280;41875;55.806;38.082;2022-09-13T02:28:59;99411.25;;;10.18;54.20
55990;BME280;41875;55.806;38.082;2022-09-13T02:31:33;99411.59;;;9.88;55.05
55990;BME280;41875;55.806;38.082;2022-09-13T02:34:08;99410.06;;;10.12;54.29
55990;BME280;41875;55.806;38.082;2022-09-13T02:36:40;99409.41;;;10.18;54.05
55990;BME280;41875;55.806;38.082;2022-09-13T02:39:13;99408.66;;;10.34;53.69
55990;BME280;41875;55.806;38.082;2022-09-13T02:41:47;99407.56;;;10.11;54.14
55990;BME280;41875;55.806;38.082;2022-09-13T02:44:22;99399.34;;;9.61;55.94
55990;BME280;41875;55.806;38.082;2022-09-13T02:47:03;99409.47;;;9.39;56.73
55990;BME280;41875;55.806;38.082;2022-09-13T02:49:43;99409.84;;;9.71;56.03
55990;BME280;41875;55.806;38.082;2022-09-13T02:52:23;99405.41;;;9.53;56.38
55990;BME280;41875;55.806;38.082;2022-09-13T02:55:02;99404.53;;;9.71;55.56
55990;BME280;41875;55.806;38.082;2022-09-13T02:57:39;99396.75;;;9.96;54.83
55990;BME280;41875;55.806;38.082;2022-09-13T03:00:10;99399.44;;;9.77;55.51
55990;BME280;41875;55.806;38.082;2022-09-13T03:02:41;99391.84;;;10.09;54.30
55990;BME280;41875;55.806;38.082;2022-09-13T03:05:12;99394.09;;;10.30;53.73
55990;BME280;41875;55.806;38.082;2022-09-13T03:07:40;99383.06;;;10.09;54.50
55990;BME280;41875;55.806;38.082;2022-09-13T03:10:12;99391.38;;;10.22;53.84
55990;BME280;41875;55.806;38.082;2022-09-13T03:13:03;99384.59;;;10.11;54.68
55990;BME280;41875;55.806;38.082;2022-09-13T03:15:44;99386.41;;;10.54;53.21
55990;BME280;41875;55.806;38.082;2022-09-13T03:18:22;99393.22;;;10.73;52.31
55990;BME280;41875;55.806;38.082;2022-09-13T03:21:04;99394.06;;;10.73;52.64
55990;BME280;41875;55.806;38.082;2022-09-13T03:23:41;99394.31;;;10.45;53.18
55990;BME280;41875;55.806;38.082;2022-09-13T03:26:41;99385.63;;;10.86;52.29
55990;BME280;41875;55.806;38.082;2022-09-13T03:29:24;99394.06;;;10.73;52.71
55990;BME280;41875;55.806;38.082;2022-09-13T03:32:04;99389.00;;;10.45;53.42
55990;BME280;41875;55.806;38.082;2022-09-13T03:34:41;99396.19;;;10.70;52.80
55990;BME280;41875;55.806;38.082;2022-09-13T03:37:20;99389.97;;;10.95;52.11
55990;BME280;41875;55.806;38.082;2022-09-13T03:39:55;99389.78;;;11.05;51.72
55990;BME280;41875;55.806;38.082;2022-09-13T03:42:30;99391.56;;;10.72;52.64
55990;BME280;41875;55.806;38.082;2022-09-13T03:45:01;99387.13;;;11.13;51.56
55990;BME280;41875;55.806;38.082;2022-09-13T03:47:32;99381.97;;;11.28;51.22
55990;BME280;41875;55.806;38.082;2022-09-13T03:50:06;99391.44;;;11.15;51.73
55990;BME280;41875;55.806;38.082;2022-09-13T03:52:37;99390.78;;;11.29;51.02
55990;BME280;41875;55.806;38.082;2022-09-13T03:55:12;99389.06;;;11.78;49.82
55990;BME280;41875;55.806;38.082;2022-09-13T03:57:41;99388.25;;;11.61;50.12
55990;BME280;41875;55.806;38.082;2022-09-13T04:00:13;99387.72;;;11.65;50.24
55990;BME280;41875;55.806;38.082;2022-09-13T04:02:44;99395.69;;;10.74;52.41
55990;BME280;41875;55.806;38.082;2022-09-13T04:05:12;99378.84;;;10.92;51.93
55990;BME280;41875;55.806;38.082;2022-09-13T04:07:42;99372.88;;;10.73;52.75
55990;BME280;41875;55.806;38.082;2022-09-13T04:10:11;99375.31;;;10.58;53.22
55990;BME280;41875;55.806;38.082;2022-09-13T04:12:39;99375.88;;;11.11;51.93
55990;BME280;41875;55.806;38.082;2022-09-13T04:15:08;99374.72;;;11.06;52.04
55990;BME280;41875;55.806;38.082;2022-09-13T04:17:37;99363.00;;;11.73;50.38
55990;BME280;41875;55.806;38.082;2022-09-13T04:20:06;99377.81;;;11.51;50.79
55990;BME280;41875;55.806;38.082;2022-09-13T04:22:35;99372.19;;;11.54;50.66
55990;BME280;41875;55.806;38.082;2022-09-13T04:25:06;99378.16;;;11.64;50.69
55990;BME280;41875;55.806;38.082;2022-09-13T04:27:34;99372.78;;;12.29;48.97
55990;BME280;41875;55.806;38.082;2022-09-13T04:30:03;99373.66;;;12.21;48.89
55990;BME280;41875;55.806;38.082;2022-09-13T04:32:32;99376.31;;;12.21;48.94
55990;BME280;41875;55.806;38.082;2022-09-13T04:35:00;99384.97;;;12.15;49.21
55990;BME280;41875;55.806;38.082;2022-09-13T04:37:30;99382.59;;;12.60;47.94
55990;BME280;41875;55.806;38.082;2022-09-13T04:39:58;99368.91;;;12.08;49.28
55990;BME280;41875;55.806;38.082;2022-09-13T04:42:30;99383.94;;;12.56;48.59
55990;BME280;41875;55.806;38.082;2022-09-13T04:44:59;99387.97;;;12.75;47.59
55990;BME280;41875;55.806;38.082;2022-09-13T04:47:29;99384.22;;;12.29;49.20
55990;BME280;41875;55.806;38.082;2022-09-13T04:49:58;99378.78;;;12.23;49.06
55990;BME280;41875;55.806;38.082;2022-09-13T04:52:26;99386.34;;;12.42;48.76
55990;BME280;41875;55.806;38.082;2022-09-13T04:54:55;99392.59;;;13.04;47.32
55990;BME280;41875;55.806;38.082;2022-09-13T04:57:26;99395.38;;;12.88;47.65
55990;BME280;41875;55.806;38.082;2022-09-13T04:59:56;99386.28;;;12.50;48.57
55990;BME280;41875;55.806;38.082;2022-09-13T05:02:24;99394.88;;;12.61;48.51
55990;BME280;41875;55.806;38.082;2022-09-13T05:04:53;99393.91;;;12.85;48.01
55990;BME280;41875;55.806;38.082;2022-09-13T05:07:21;99388.88;;;12.35;48.98
55990;BME280;41875;55.806;38.082;2022-09-13T05:09:50;99397.34;;;12.62;48.62
55990;BME280;41875;55.806;38.082;2022-09-13T05:12:18;99395.28;;;13.19;47.11
55990;BME280;41875;55.806;38.082;2022-09-13T05:14:47;99395.78;;;13.61;46.10
55990;BME280;41875;55.806;38.082;2022-09-13T05:17:17;99392.84;;;13.71;45.93
55990;BME280;41875;55.806;38.082;2022-09-13T05:19:46;99390.81;;;13.58;46.36
55990;BME280;41875;55.806;38.082;2022-09-13T05:22:15;99391.16;;;12.70;47.92
55990;BME280;41875;55.806;38.082;2022-09-13T05:24:43;99400.50;;;13.13;47.62
55990;BME280;41875;55.806;38.082;2022-09-13T05:27:12;99393.16;;;13.76;45.91
55990;BME280;41875;55.806;38.082;2022-09-13T05:29:41;99404.25;;;13.80;45.57
55990;BME280;41875;55.806;38.082;2022-09-13T05:32:09;99395.50;;;13.33;47.29
55990;BME280;41875;55.806;38.082;2022-09-13T05:34:39;99400.59;;;12.73;48.19
55990;BME280;41875;55.806;38.082;2022-09-13T05:37:08;99396.09;;;12.50;49.39
55990;BME280;41875;55.806;38.082;2022-09-13T05:39:36;99391.28;;;13.00;48.25
55990;BME280;41875;55.806;38.082;2022-09-13T05:42:25;99390.81;;;13.35;47.55
55990;BME280;41875;55.806;38.082;2022-09-13T05:44:53;99385.69;;;13.33;47.49
55990;BME280;41875;55.806;38.082;2022-09-13T05:47:23;99379.34;;;14.02;45.93
55990;BME280;41875;55.806;38.082;2022-09-13T05:49:53;99392.47;;;13.59;46.72
55990;BME280;41875;55.806;38.082;2022-09-13T05:52:36;99390.94;;;14.10;45.75
55990;BME280;41875;55.806;38.082;2022-09-13T05:55:05;99402.22;;;13.05;47.96
55990;BME280;41875;55.806;38.082;2022-09-13T05:57:35;99392.59;;;13.81;46.35
55990;BME280;41875;55.806;38.082;2022-09-13T06:00:05;99404.22;;;12.80;49.01
55990;BME280;41875;55.806;38.082;2022-09-13T06:02:38;99396.41;;;13.02;48.48
55990;BME280;41875;55.806;38.082;2022-09-13T06:05:09;99406.00;;;12.88;49.29
55990;BME280;41875;55.806;38.082;2022-09-13T06:07:38;99389.28;;;13.79;46.71
55990;BME280;41875;55.806;38.082;2022-09-13T06:10:09;99391.91;;;14.24;45.84
55990;BME280;41875;55.806;38.082;2022-09-13T06:12:39;99385.66;;;14.31;45.97
55990;BME280;41875;55.806;38.082;2022-09-13T06:15:08;99382.63;;;14.35;45.80
55990;BME280;41875;55.806;38.082;2022-09-13T06:17:37;99384.38;;;14.12;46.14
55990;BME280;41875;55.806;38.082;2022-09-13T06:20:08;99382.94;;;13.80;46.91
55990;BME280;41875;55.806;38.082;2022-09-13T06:22:37;99372.56;;;14.00;46.92
55990;BME280;41875;55.806;38.082;2022-09-13T06:25:07;99369.56;;;14.25;45.97
55990;BME280;41875;55.806;38.082;2022-09-13T06:27:36;99381.81;;;14.19;46.47
55990;BME280;41875;55.806;38.082;2022-09-13T06:30:05;99382.00;;;14.17;46.24
55990;BME280;41875;55.806;38.082;2022-09-13T06:32:34;99382.66;;;14.05;46.68
55990;BME280;41875;55.806;38.082;2022-09-13T06:35:04;99376.88;;;13.86;47.62
55990;BME280;41875;55.806;38.082;2022-09-13T06:37:34;99382.97;;;14.31;45.89
55990;BME280;41875;55.806;38.082;2022-09-13T06:40:02;99371.97;;;14.71;44.83
55990;BME280;41875;55.806;38.082;2022-09-13T06:42:33;99378.84;;;14.66;44.40
55990;BME280;41875;55.806;38.082;2022-09-13T06:45:01;99380.88;;;14.78;45.44
55990;BME280;41875;55.806;38.082;2022-09-13T06:47:30;99383.84;;;14.54;45.67
55990;BME280;41875;55.806;38.082;2022-09-13T06:49:58;99381.69;;;14.42;45.92
55990;BME280;41875;55.806;38.082;2022-09-13T06:52:27;99386.78;;;13.62;47.47
55990;BME280;41875;55.806;38.082;2022-09-13T06:54:57;99380.44;;;14.08;47.21
55990;BME280;41875;55.806;38.082;2022-09-13T06:57:28;99379.25;;;13.96;47.20
55990;BME280;41875;55.806;38.082;2022-09-13T06:59:57;99378.81;;;13.92;47.07
55990;BME280;41875;55.806;38.082;2022-09-13T07:02:25;99376.91;;;14.38;45.94
55990;BME280;41875;55.806;38.082;2022-09-13T07:04:54;99370.16;;;14.57;45.71
55990;BME280;41875;55.806;38.082;2022-09-13T07:07:22;99381.13;;;14.84;44.62
55990;BME280;41875;55.806;38.082;2022-09-13T07:09:51;99380.28;;;15.27;43.91
55990;BME280;41875;55.806;38.082;2022-09-13T07:12:20;99384.53;;;14.99;43.90
55990;BME280;41875;55.806;38.082;2022-09-13T07:14:49;99384.00;;;14.67;43.88
55990;BME280;41875;55.806;38.082;2022-09-13T07:17:17;99379.88;;;14.80;44.21
55990;BME280;41875;55.806;38.082;2022-09-13T07:19:46;99371.16;;;14.19;45.76
55990;BME280;41875;55.806;38.082;2022-09-13T07:22:14;99360.28;;;14.72;44.28
55990;BME280;41875;55.806;38.082;2022-09-13T07:24:43;99367.66;;;14.92;44.18
55990;BME280;41875;55.806;38.082;2022-09-13T07:27:11;99358.72;;;15.28;43.55
55990;BME280;41875;55.806;38.082;2022-09-13T07:29:42;99349.94;;;15.63;42.76
55990;BME280;41875;55.806;38.082;2022-09-13T07:32:10;99352.59;;;15.98;41.94
55990;BME280;41875;55.806;38.082;2022-09-13T07:34:39;99345.50;;;16.12;41.77
55990;BME280;41875;55.806;38.082;2022-09-13T07:37:07;99349.94;;;16.53;40.77
55990;BME280;41875;55.806;38.082;2022-09-13T07:39:37;99341.94;;;15.34;43.20
55990;BME280;41875;55.806;38.082;2022-09-13T07:42:05;99341.25;;;15.89;42.32
55990;BME280;41875;55.806;38.082;2022-09-13T07:44:34;99339.41;;;16.32;41.44
55990;BME280;41875;55.806;38.082;2022-09-13T07:47:04;99336.56;;;16.60;41.03
55990;BME280;41875;55.806;38.082;2022-09-13T07:49:32;99334.28;;;16.43;41.48
55990;BME280;41875;55.806;38.082;2022-09-13T07:52:01;99323.03;;;16.88;39.68
55990;BME280;41875;55.806;38.082;2022-09-13T07:54:29;99328.19;;;17.37;37.98
55990;BME280;41875;55.806;38.082;2022-09-13T07:56:58;99321.19;;;17.43;37.98
55990;BME280;41875;55.806;38.082;2022-09-13T07:59:26;99311.38;;;17.82;36.56
55990;BME280;41875;55.806;38.082;2022-09-13T08:01:56;99316.50;;;17.97;36.11
55990;BME280;41875;55.806;38.082;2022-09-13T08:04:26;99301.22;;;17.25;37.84
55990;BME280;41875;55.806;38.082;2022-09-13T08:06:59;99304.81;;;17.78;36.76
55990;BME280;41875;55.806;38.082;2022-09-13T08:09:27;99306.81;;;18.03;36.22
55990;BME280;41875;55.806;38.082;2022-09-13T08:11:56;99289.28;;;17.93;36.61
55990;BME280;41875;55.806;38.082;2022-09-13T08:14:24;99299.13;;;18.13;35.95
55990;BME280;41875;55.806;38.082;2022-09-13T08:16:54;99288.22;;;18.15;35.68
55990;BME280;41875;55.806;38.082;2022-09-13T08:19:23;99286.50;;;18.27;35.46
55990;BME280;41875;55.806;38.082;2022-09-13T08:21:53;99291.09;;;18.13;35.58
55990;BME280;41875;55.806;38.082;2022-09-13T08:24:21;99294.56;;;18.20;35.11
55990;BME280;41875;55.806;38.082;2022-09-13T08:26:52;99301.75;;;18.26;34.97
55990;BME280;41875;55.806;38.082;2022-09-13T08:29:22;99279.34;;;18.46;34.17
55990;BME280;41875;55.806;38.082;2022-09-13T08:31:51;99296.81;;;18.23;35.03
55990;BME280;41875;55.806;38.082;2022-09-13T08:34:19;99295.44;;;18.07;34.65
55990;BME280;41875;55.806;38.082;2022-09-13T08:36:48;99296.34;;;18.65;33.23
55990;BME280;41875;55.806;38.082;2022-09-13T08:39:18;99280.03;;;17.17;35.92
55990;BME280;41875;55.806;38.082;2022-09-13T08:42:05;99279.13;;;18.48;34.29
55990;BME280;41875;55.806;38.082;2022-09-13T08:44:44;99281.47;;;17.98;33.97
55990;BME280;41875;55.806;38.082;2022-09-13T08:50:14;99308.38;;;17.65;35.24
55990;BME280;41875;55.806;38.082;2022-09-13T08:52:50;99281.47;;;16.92;36.79
55990;BME280;41875;55.806;38.082;2022-09-13T08:55:34;99289.47;;;18.44;34.06
55990;BME280;41875;55.806;38.082;2022-09-13T08:58:24;99275.47;;;18.03;34.59
55990;BME280;41875;55.806;38.082;2022-09-13T09:01:02;99264.84;;;17.76;35.02
55990;BME280;41875;55.806;38.082;2022-09-13T09:03:40;99272.88;;;17.76;34.71
55990;BME280;41875;55.806;38.082;2022-09-13T09:06:14;99246.56;;;18.12;34.26
55990;BME280;41875;55.806;38.082;2022-09-13T09:08:46;99272.31;;;17.61;34.92
55990;BME280;41875;55.806;38.082;2022-09-13T09:11:26;99273.09;;;17.75;34.54
55990;BME280;41875;55.806;38.082;2022-09-13T09:14:01;99272.41;;;17.20;35.64
55990;BME280;41875;55.806;38.082;2022-09-13T09:16:36;99274.06;;;17.21;35.87
55990;BME280;41875;55.806;38.082;2022-09-13T09:19:16;99257.56;;;17.18;35.69
55990;BME280;41875;55.806;38.082;2022-09-13T09:21:48;99269.47;;;17.42;35.53
55990;BME280;41875;55.806;38.082;2022-09-13T09:24:20;99243.91;;;18.05;34.59
55990;BME280;41875;55.806;38.082;2022-09-13T09:26:52;99270.28;;;18.47;33.72
55990;BME280;41875;55.806;38.082;2022-09-13T09:29:23;99234.38;;;18.73;33.42
55990;BME280;41875;55.806;38.082;2022-09-13T09:32:03;99255.88;;;18.41;34.32
55990;BME280;41875;55.806;38.082;2022-09-13T09:34:46;99219.38;;;18.66;34.22
55990;BME280;41875;55.806;38.082;2022-09-13T09:37:19;99224.28;;;18.69;33.10
55990;BME280;41875;55.806;38.082;2022-09-13T09:39:48;99210.59;;;19.40;32.83
55990;BME280;41875;55.806;38.082;2022-09-13T09:42:21;99205.59;;;19.62;32.27
55990;BME280;41875;55.806;38.082;2022-09-13T09:44:52;99219.63;;;19.08;32.89
55990;BME280;41875;55.806;38.082;2022-09-13T09:47:25;99220.72;;;18.75;33.73
55990;BME280;41875;55.806;38.082;2022-09-13T09:50:00;99228.44;;;19.15;32.59
55990;BME280;41875;55.806;38.082;2022-09-13T09:52:43;99219.97;;;19.68;31.70
55990;BME280;41875;55.806;38.082;2022-09-13T09:55:23;99214.13;;;19.22;32.53
55990;BME280;41875;55.806;38.082;2022-09-13T09:57:56;99213.28;;;19.77;31.62
55990;BME280;41875;55.806;38.082;2022-09-13T10:00:27;99223.66;;;19.73;31.48
55990;BME280;41875;55.806;38.082;2022-09-13T10:02:58;99213.66;;;19.62;31.95
55990;BME280;41875;55.806;38.082;2022-09-13T10:05:28;99234.72;;;19.28;32.59
55990;BME280;41875;55.806;38.082;2022-09-13T10:08:00;99213.03;;;19.78;31.83
55990;BME280;41875;55.806;38.082;2022-09-13T10:10:35;99211.84;;;19.00;32.56
55990;BME280;41875;55.806;38.082;2022-09-13T10:13:18;99200.38;;;18.67;33.28
55990;BME280;41875;55.806;38.082;2022-09-13T10:15:55;99204.84;;;18.23;34.30
55990;BME280;41875;55.806;38.082;2022-09-13T10:18:25;99211.66;;;18.51;33.88
55990;BME280;41875;55.806;38.082;2022-09-13T10:21:22;99203.22;;;19.16;32.89
55990;BME280;41875;55.806;38.082;2022-09-13T10:23:51;99218.91;;;18.69;33.45
55990;BME280;41875;55.806;38.082;2022-09-13T10:26:23;99214.66;;;18.36;34.23
55990;BME280;41875;55.806;38.082;2022-09-13T10:28:55;99212.19;;;18.34;34.21
55990;BME280;41875;55.806;38.082;2022-09-13T10:31:28;99213.00;;;18.03;35.07
55990;BME280;41875;55.806;38.082;2022-09-13T10:33:58;99208.19;;;18.18;34.74
55990;BME280;41875;55.806;38.082;2022-09-13T10:36:31;99215.84;;;18.40;34.19
55990;BME280;41875;55.806;38.082;2022-09-13T10:39:20;99206.31;;;18.19;34.29
55990;BME280;41875;55.806;38.082;2022-09-13T10:41:53;99211.56;;;18.07;34.49
55990;BME280;41875;55.806;38.082;2022-09-13T10:44:31;99195.22;;;18.40;34.10
55990;BME280;41875;55.806;38.082;2022-09-13T10:47:03;99190.72;;;18.85;33.21
55990;BME280;41875;55.806;38.082;2022-09-13T10:49:37;99194.25;;;18.35;34.04
55990;BME280;41875;55.806;38.082;2022-09-13T10:52:30;99191.38;;;17.97;35.22
55990;BME280;41875;55.806;38.082;2022-09-13T10:55:22;99186.81;;;18.05;34.74
55990;BME280;41875;55.806;38.082;2022-09-13T10:57:52;99169.75;;;18.24;34.26
55990;BME280;41875;55.806;38.082;2022-09-13T11:00:30;99178.22;;;18.28;34.44
55990;BME280;41875;55.806;38.082;2022-09-13T11:03:17;99183.41;;;18.23;34.60
55990;BME280;41875;55.806;38.082;2022-09-13T11:05:58;99184.66;;;18.46;34.51
55990;BME280;41875;55.806;38.082;2022-09-13T11:08:38;99184.66;;;17.81;35.39
55990;BME280;41875;55.806;38.082;2022-09-13T11:11:10;99190.72;;;18.34;34.67
55990;BME280;41875;55.806;38.082;2022-09-13T11:13:52;99191.66;;;17.37;35.96
55990;BME280;41875;55.806;38.082;2022-09-13T11:16:37;99176.88;;;17.66;35.58
55990;BME280;41875;55.806;38.082;2022-09-13T11:19:34;99160.13;;;18.17;34.79
55990;BME280;41875;55.806;38.082;2022-09-13T11:25:13;99184.19;;;17.91;35.37
55990;BME280;41875;55.806;38.082;2022-09-13T11:27:49;99164.19;;;18.26;34.22
55990;BME280;41875;55.806;38.082;2022-09-13T11:30:23;99153.13;;;18.16;34.32
55990;BME280;41875;55.806;38.082;2022-09-13T11:33:14;99171.06;;;17.76;34.94
55990;BME280;41875;55.806;38.082;2022-09-13T11:35:57;99152.16;;;17.19;36.14
55990;BME280;41875;55.806;38.082;2022-09-13T11:38:35;99148.22;;;17.74;35.12
55990;BME280;41875;55.806;38.082;2022-09-13T11:41:20;99135.00;;;18.11;34.48
55990;BME280;41875;55.806;38.082;2022-09-13T11:44:02;99146.22;;;18.01;34.35
55990;BME280;41875;55.806;38.082;2022-09-13T11:46:37;99151.66;;;18.20;34.10
55990;BME280;41875;55.806;38.082;2022-09-13T11:49:27;99140.72;;;18.21;34.21
55990;BME280;41875;55.806;38.082;2022-09-13T11:52:08;99152.59;;;18.07;34.60
55990;BME280;41875;55.806;38.082;2022-09-13T11:54:49;99140.28;;;17.99;34.71
55990;BME280;41875;55.806;38.082;2022-09-13T11:57:24;99150.22;;;17.85;34.88
55990;BME280;41875;55.806;38.082;2022-09-13T11:59:57;99136.75;;;17.60;34.99
55990;BME280;41875;55.806;38.082;2022-09-13T12:02:36;99133.66;;;17.95;34.41
55990;BME280;41875;55.806;38.082;2022-09-13T12:05:14;99128.50;;;17.93;34.44
55990;BME280;41875;55.806;38.082;2022-09-13T12:07:51;99134.69;;;17.62;34.83
55990;BME280;41875;55.806;38.082;2022-09-13T12:10:23;99134.69;;;18.01;34.05
55990;BME280;41875;55.806;38.082;2022-09-13T12:12:54;99133.63;;;17.70;34.74
55990;BME280;41875;55.806;38.082;2022-09-13T12:15:31;99160.25;;;17.58;34.93
55990;BME280;41875;55.806;38.082;2022-09-13T12:18:07;99142.81;;;17.80;34.65
55990;BME280;41875;55.806;38.082;2022-09-13T12:20:42;99140.72;;;17.50;35.29
55990;BME280;41875;55.806;38.082;2022-09-13T12:23:15;99132.16;;;17.74;34.64
55990;BME280;41875;55.806;38.082;2022-09-13T12:25:50;99135.91;;;17.66;34.71
55990;BME280;41875;55.806;38.082;2022-09-13T12:28:23;99116.38;;;17.91;33.82
55990;BME280;41875;55.806;38.082;2022-09-13T12:30:57;99113.84;;;18.03;33.48
55990;BME280;41875;55.806;38.082;2022-09-13T12:33:27;99128.72;;;17.60;34.02
55990;BME280;41875;55.806;38.082;2022-09-13T12:36:19;99115.69;;;18.02;33.75
55990;BME280;41875;55.806;38.082;2022-09-13T12:39:25;99108.91;;;18.50;33.01
55990;BME280;41875;55.806;38.082;2022-09-13T12:42:05;99117.63;;;17.88;32.70
55990;BME280;41875;55.806;38.082;2022-09-13T12:44:49;99118.75;;;17.35;34.56
55990;BME280;41875;55.806;38.082;2022-09-13T12:47:37;99102.97;;;17.91;33.44
55990;BME280;41875;55.806;38.082;2022-09-13T12:50:21;99087.13;;;18.21;32.98
55990;BME280;41875;55.806;38.082;2022-09-13T12:53:24;99088.34;;;18.19;32.89
55990;BME280;41875;55.806;38.082;2022-09-13T12:56:09;99090.88;;;17.81;33.72
55990;BME280;41875;55.806;38.082;2022-09-13T12:58:57;99097.63;;;17.91;33.54
55990;BME280;41875;55.806;38.082;2022-09-13T13:01:30;99099.19;;;17.34;34.40
55990;BME280;41875;55.806;38.082;2022-09-13T13:04:03;99078.47;;;17.55;34.06
55990;BME280;41875;55.806;38.082;2022-09-13T13:06:39;99083.53;;;18.02;33.34
55990;BME280;41875;55.806;38.082;2022-09-13T13:09:22;99094.38;;;17.82;33.78
55990;BME280;41875;55.806;38.082;2022-09-13T13:11:55;99067.34;;;17.58;33.80
55990;BME280;41875;55.806;38.082;2022-09-13T13:14:46;99081.50;;;17.65;33.73
55990;BME280;41875;55.806;38.082;2022-09-13T13:17:39;99071.06;;;17.89;33.57
55990;BME280;41875;55.806;38.082;2022-09-13T13:23:02;99083.34;;;18.04;33.35
55990;BME280;41875;55.806;38.082;2022-09-13T13:25:35;99081.81;;;17.82;34.09
55990;BME280;41875;55.806;38.082;2022-09-13T13:31:03;99063.53;;;17.73;34.39
55990;BME280;41875;55.806;38.082;2022-09-13T13:33:45;99044.16;;;18.03;33.95
55990;BME280;41875;55.806;38.082;2022-09-13T13:36:20;99046.97;;;17.57;34.79
55990;BME280;41875;55.806;38.082;2022-09-13T13:39:31;99045.00;;;17.96;34.41
55990;BME280;41875;55.806;38.082;2022-09-13T13:42:10;99051.38;;;17.70;34.32